createdAt,value
2022-11-03T00:00:36.148Z,24.20
2022-11-03T00:01:36.234Z,24.22
2022-11-03T00:02:36.226Z,24.21
2022-11-03T00:03:36.126Z,24.24
2022-11-03T00:04:36.109Z,24.25
2022-11-03T00:05:36.105Z,24.22
2022-11-03T00:06:36.083Z,24.24
2022-11-03T00:07:36.067Z,24.22
2022-11-03T00:08:36.109Z,24.24
2022-11-03T00:09:36.052Z,24.22
2022-11-03T00:10:36.053Z,24.24
2022-11-03T00:11:36.054Z,24.22
2022-11-03T00:12:36.020Z,24.22
2022-11-03T00:13:36.061Z,24.20
2022-11-03T00:14:35.999Z,24.20
2022-11-03T00:15:35.990Z,24.20
2022-11-03T00:16:35.991Z,24.20
2022-11-03T00:17:35.981Z,24.21
2022-11-03T00:18:35.957Z,24.21
2022-11-03T00:19:36.044Z,24.20
2022-11-03T00:20:35.953Z,24.22
2022-11-03T00:21:35.932Z,24.18
2022-11-03T00:22:35.938Z,24.21
2022-11-03T00:23:35.920Z,24.21
2022-11-03T00:24:35.901Z,24.20
2022-11-03T00:25:35.930Z,24.20
2022-11-03T00:26:35.879Z,24.20
2022-11-03T00:27:35.870Z,24.18
2022-11-03T00:28:35.873Z,24.21
2022-11-03T00:29:35.866Z,24.18
2022-11-03T00:30:35.847Z,24.21
2022-11-03T00:31:35.835Z,24.16
2022-11-03T00:32:35.812Z,24.18
2022-11-03T00:33:35.808Z,24.18
2022-11-03T00:34:35.792Z,24.18
2022-11-03T00:35:35.772Z,24.20
2022-11-03T00:36:35.784Z,24.18
2022-11-03T00:37:35.768Z,24.18
2022-11-03T00:38:35.762Z,24.18
2022-11-03T00:39:35.753Z,24.18
2022-11-03T00:40:35.726Z,24.18
2022-11-03T00:41:35.730Z,24.16
2022-11-03T00:42:35.728Z,24.18
2022-11-03T00:43:35.693Z,24.16
2022-11-03T00:44:35.702Z,24.16
2022-11-03T00:45:35.686Z,24.16
2022-11-03T00:46:35.949Z,24.16
2022-11-03T00:47:35.664Z,24.18
2022-11-03T00:48:35.652Z,24.16
2022-11-03T00:49:35.625Z,24.15
2022-11-03T00:50:35.635Z,24.16
2022-11-03T00:51:35.654Z,24.16
2022-11-03T00:52:35.601Z,24.16
2022-11-03T00:53:35.619Z,24.13
2022-11-03T00:54:35.594Z,24.13
2022-11-03T00:55:35.567Z,24.16
2022-11-03T00:56:35.576Z,24.15
2022-11-03T00:57:35.657Z,24.15
2022-11-03T00:58:36.148Z,24.12
2022-11-03T00:59:35.536Z,24.13
2022-11-03T01:00:35.515Z,24.15
2022-11-03T01:01:39.253Z,24.12
2022-11-03T01:02:35.633Z,24.16
2022-11-03T01:03:35.734Z,24.15
2022-11-03T01:04:35.492Z,24.18
2022-11-03T01:05:35.475Z,24.16
2022-11-03T01:06:36.094Z,24.18
2022-11-03T01:07:35.443Z,24.18
2022-11-03T01:08:35.449Z,24.15
2022-11-03T01:09:35.654Z,24.13
2022-11-03T01:10:35.421Z,24.16
2022-11-03T01:11:36.478Z,24.18
2022-11-03T01:12:35.386Z,24.15
2022-11-03T01:13:35.390Z,24.16
2022-11-03T01:14:35.365Z,24.15
2022-11-03T01:15:35.346Z,24.16
2022-11-03T01:16:35.357Z,24.15
2022-11-03T01:17:35.333Z,24.16
2022-11-03T01:18:35.349Z,24.13
2022-11-03T01:19:35.321Z,24.15
2022-11-03T01:20:35.310Z,24.15
2022-11-03T01:21:35.282Z,24.12
2022-11-03T01:22:35.686Z,24.12
2022-11-03T01:23:35.290Z,24.13
2022-11-03T01:24:35.283Z,24.12
2022-11-03T01:25:35.255Z,24.13
2022-11-03T01:26:35.676Z,24.13
2022-11-03T01:27:35.362Z,24.13
2022-11-03T01:28:35.231Z,24.12
2022-11-03T01:29:35.213Z,24.13
2022-11-03T01:30:35.206Z,24.13
2022-11-03T01:31:35.892Z,24.10
2022-11-03T01:32:35.188Z,24.10
2022-11-03T01:33:35.170Z,24.13
2022-11-03T01:34:35.152Z,24.12
2022-11-03T01:35:35.143Z,24.13
2022-11-03T01:36:35.158Z,24.12
2022-11-03T01:37:35.116Z,24.13
2022-11-03T01:38:35.127Z,24.10
2022-11-03T01:39:35.113Z,24.12
2022-11-03T01:40:35.093Z,24.12
2022-11-03T01:41:35.097Z,24.12
2022-11-03T01:42:35.071Z,24.10
2022-11-03T01:43:35.053Z,24.10
2022-11-03T01:44:35.072Z,24.13
2022-11-03T01:45:35.043Z,24.12
2022-11-03T01:46:35.041Z,24.12
2022-11-03T01:47:35.024Z,24.12
2022-11-03T01:48:35.004Z,24.10
2022-11-03T01:49:35.003Z,24.15
2022-11-03T01:50:34.982Z,24.12
2022-11-03T01:51:35.623Z,24.10
2022-11-03T01:52:34.978Z,24.09
2022-11-03T01:53:34.987Z,24.10
2022-11-03T01:54:34.942Z,24.12
2022-11-03T01:55:35.014Z,24.09
2022-11-03T01:56:34.935Z,24.10
2022-11-03T01:57:34.913Z,24.09
2022-11-03T01:58:34.939Z,24.12
2022-11-03T01:59:34.900Z,24.10
2022-11-03T02:00:34.881Z,24.12
2022-11-03T02:01:35.044Z,24.09
2022-11-03T02:02:34.941Z,24.09
2022-11-03T02:03:34.855Z,24.09
2022-11-03T02:04:34.853Z,24.10
2022-11-03T02:05:34.824Z,24.08
2022-11-03T02:06:34.883Z,24.12
2022-11-03T02:07:34.814Z,24.09
2022-11-03T02:08:34.792Z,24.08
2022-11-03T02:09:34.787Z,24.09
2022-11-03T02:10:34.789Z,24.09
2022-11-03T02:11:35.021Z,24.12
2022-11-03T02:12:34.751Z,24.09
2022-11-03T02:13:34.766Z,24.09
2022-11-03T02:14:34.737Z,24.09
2022-11-03T02:15:34.720Z,24.12
2022-11-03T02:16:34.722Z,24.10
2022-11-03T02:17:34.713Z,24.09
2022-11-03T02:18:35.269Z,24.10
2022-11-03T02:19:34.697Z,24.09
2022-11-03T02:20:34.674Z,24.09
2022-11-03T02:21:34.666Z,24.08
2022-11-03T02:22:34.662Z,24.09
2022-11-03T02:23:34.718Z,24.09
2022-11-03T02:24:35.179Z,24.10
2022-11-03T02:25:34.650Z,24.09
2022-11-03T02:26:34.606Z,24.10
2022-11-03T02:27:34.589Z,24.08
2022-11-03T02:28:34.602Z,24.06
2022-11-03T02:29:34.573Z,24.06
2022-11-03T02:30:34.581Z,24.08
2022-11-03T02:31:34.600Z,24.08
2022-11-03T02:32:34.547Z,24.09
2022-11-03T02:33:34.541Z,24.09
2022-11-03T02:34:34.521Z,24.08
2022-11-03T02:35:34.722Z,24.08
2022-11-03T02:36:34.574Z,24.10
2022-11-03T02:37:34.516Z,24.06
2022-11-03T02:38:34.496Z,24.09
2022-11-03T02:39:34.484Z,24.10
2022-11-03T02:40:34.475Z,24.09
2022-11-03T02:41:34.448Z,24.08
2022-11-03T02:42:34.467Z,24.08
2022-11-03T02:43:34.439Z,24.08
2022-11-03T02:44:34.446Z,24.08
2022-11-03T02:45:34.416Z,24.10
2022-11-03T02:46:34.397Z,24.09
2022-11-03T02:47:34.383Z,24.08
2022-11-03T02:48:34.387Z,24.09
2022-11-03T02:49:34.362Z,24.09
2022-11-03T02:50:34.358Z,24.05
2022-11-03T02:51:34.786Z,24.06
2022-11-03T02:52:34.321Z,24.08
2022-11-03T02:53:34.339Z,24.08
2022-11-03T02:54:34.305Z,24.05
2022-11-03T02:55:34.308Z,24.08
2022-11-03T02:56:34.870Z,24.08
2022-11-03T02:57:34.293Z,24.06
2022-11-03T02:58:34.263Z,24.06
2022-11-03T02:59:34.257Z,24.06
2022-11-03T03:00:34.254Z,24.06
2022-11-03T03:01:34.424Z,24.08
2022-11-03T03:02:34.269Z,24.06
2022-11-03T03:03:34.268Z,24.06
2022-11-03T03:04:34.199Z,24.08
2022-11-03T03:05:34.204Z,24.05
2022-11-03T03:06:34.190Z,24.05
2022-11-03T03:07:34.178Z,24.05
2022-11-03T03:08:34.167Z,24.03
2022-11-03T03:09:34.656Z,24.05
2022-11-03T03:10:34.151Z,24.05
2022-11-03T03:11:34.148Z,24.06
2022-11-03T03:12:34.116Z,24.06
2022-11-03T03:13:34.117Z,24.06
2022-11-03T03:14:34.148Z,24.05
2022-11-03T03:15:34.100Z,24.05
2022-11-03T03:16:34.098Z,24.06
2022-11-03T03:17:34.079Z,24.06
2022-11-03T03:18:34.073Z,24.05
2022-11-03T03:19:34.045Z,24.03
2022-11-03T03:20:34.058Z,24.08
2022-11-03T03:21:34.037Z,24.06
2022-11-03T03:22:34.018Z,24.05
2022-11-03T03:23:34.015Z,24.08
2022-11-03T03:24:33.986Z,24.08
2022-11-03T03:25:33.993Z,24.05
2022-11-03T03:26:33.989Z,24.05
2022-11-03T03:27:33.961Z,24.08
2022-11-03T03:28:33.957Z,24.08
2022-11-03T03:29:33.951Z,24.06
2022-11-03T03:30:34.726Z,24.05
2022-11-03T03:31:33.935Z,24.05
2022-11-03T03:32:33.919Z,24.06
2022-11-03T03:33:33.896Z,24.05
2022-11-03T03:34:35.617Z,24.05
2022-11-03T03:35:33.888Z,24.06
2022-11-03T03:36:33.860Z,24.05
2022-11-03T03:37:33.891Z,24.05
2022-11-03T03:38:33.847Z,24.05
2022-11-03T03:39:33.837Z,24.08
2022-11-03T03:40:33.850Z,24.06
2022-11-03T03:41:33.809Z,24.05
2022-11-03T03:42:34.250Z,24.06
2022-11-03T03:43:33.805Z,24.06
2022-11-03T03:44:33.774Z,24.05
2022-11-03T03:45:33.804Z,24.05
2022-11-03T03:46:33.772Z,24.05
2022-11-03T03:47:33.780Z,24.03
2022-11-03T03:48:33.764Z,24.08
2022-11-03T03:49:33.731Z,24.03
2022-11-03T03:50:33.725Z,24.05
2022-11-03T03:51:33.721Z,24.05
2022-11-03T03:52:33.692Z,24.03
2022-11-03T03:53:33.729Z,24.05
2022-11-03T03:54:33.675Z,24.03
2022-11-03T03:55:33.671Z,24.05
2022-11-03T03:56:33.667Z,24.05
2022-11-03T03:57:33.647Z,24.03
2022-11-03T03:58:33.653Z,24.05
2022-11-03T03:59:33.634Z,24.02
2022-11-03T04:00:33.605Z,24.05
2022-11-03T04:01:33.781Z,24.02
2022-11-03T04:02:33.673Z,24.08
2022-11-03T04:03:33.593Z,24.02
2022-11-03T04:04:33.562Z,24.03
2022-11-03T04:05:33.577Z,24.03
2022-11-03T04:06:33.541Z,24.03
2022-11-03T04:07:34.438Z,24.03
2022-11-03T04:08:33.571Z,24.02
2022-11-03T04:09:33.941Z,24.03
2022-11-03T04:10:33.512Z,24.02
2022-11-03T04:11:33.509Z,24.03
2022-11-03T04:12:33.476Z,24.02
2022-11-03T04:13:33.493Z,24.03
2022-11-03T04:14:33.457Z,24.06
2022-11-03T04:15:33.453Z,24.03
2022-11-03T04:16:33.449Z,24.02
2022-11-03T04:17:33.449Z,24.05
2022-11-03T04:18:33.554Z,24.05
2022-11-03T04:19:33.411Z,24.03
2022-11-03T04:20:33.407Z,24.03
2022-11-03T04:21:33.391Z,24.00
2022-11-03T04:22:34.041Z,24.03
2022-11-03T04:23:33.378Z,24.03
2022-11-03T04:24:33.369Z,24.05
2022-11-03T04:25:33.364Z,24.00
2022-11-03T04:26:33.326Z,24.02
2022-11-03T04:27:33.320Z,24.03
2022-11-03T04:28:33.336Z,24.03
2022-11-03T04:29:33.304Z,24.02
2022-11-03T04:30:33.302Z,24.02
2022-11-03T04:31:33.324Z,24.03
2022-11-03T04:32:33.272Z,24.03
2022-11-03T04:33:33.259Z,24.05
2022-11-03T04:34:33.254Z,24.02
2022-11-03T04:35:34.785Z,24.02
2022-11-03T04:36:33.234Z,24.00
2022-11-03T04:37:33.235Z,24.00
2022-11-03T04:38:33.206Z,24.02
2022-11-03T04:39:33.256Z,24.02
2022-11-03T04:40:33.207Z,24.02
2022-11-03T04:41:33.175Z,24.00
2022-11-03T04:42:33.170Z,24.00
2022-11-03T04:43:33.170Z,24.00
2022-11-03T04:44:33.148Z,24.02
2022-11-03T04:45:33.148Z,24.03
2022-11-03T04:46:33.115Z,24.02
2022-11-03T04:47:33.107Z,24.00
2022-11-03T04:48:33.112Z,24.02
2022-11-03T04:49:33.885Z,24.00
2022-11-03T04:50:33.087Z,24.02
2022-11-03T04:51:33.088Z,24.00
2022-11-03T04:52:33.050Z,24.03
2022-11-03T04:53:33.063Z,24.00
2022-11-03T04:54:33.458Z,24.00
2022-11-03T04:55:33.027Z,23.98
2022-11-03T04:56:33.257Z,24.03
2022-11-03T04:57:33.006Z,24.00
2022-11-03T04:58:33.002Z,24.00
2022-11-03T04:59:33.007Z,24.02
2022-11-03T05:00:32.975Z,24.00
2022-11-03T05:01:33.156Z,24.00
2022-11-03T05:02:32.946Z,24.02
2022-11-03T05:03:32.950Z,23.98
2022-11-03T05:04:32.936Z,24.02
2022-11-03T05:05:33.710Z,23.97
2022-11-03T05:06:33.592Z,24.00
2022-11-03T05:07:32.896Z,24.02
2022-11-03T05:08:32.895Z,23.97
2022-11-03T05:09:32.890Z,23.97
2022-11-03T05:10:32.871Z,23.97
2022-11-03T05:11:32.869Z,23.98
2022-11-03T05:12:33.072Z,23.98
2022-11-03T05:13:32.846Z,24.00
2022-11-03T05:14:32.820Z,24.00
2022-11-03T05:15:32.880Z,24.00
2022-11-03T05:16:32.818Z,24.00
2022-11-03T05:17:32.793Z,24.00
2022-11-03T05:18:32.801Z,23.98
2022-11-03T05:19:32.787Z,23.98
2022-11-03T05:20:35.929Z,23.98
2022-11-03T05:21:32.753Z,23.98
2022-11-03T05:22:32.777Z,23.98
2022-11-03T05:23:32.769Z,24.00
2022-11-03T05:24:32.713Z,23.98
2022-11-03T05:25:32.721Z,23.98
2022-11-03T05:26:32.829Z,23.97
2022-11-03T05:27:32.682Z,23.97
2022-11-03T05:28:32.718Z,23.97
2022-11-03T05:29:32.666Z,23.97
2022-11-03T05:30:32.664Z,23.97
2022-11-03T05:31:32.676Z,23.98
2022-11-03T05:32:32.631Z,23.95
2022-11-03T05:33:32.666Z,23.97
2022-11-03T05:34:32.607Z,23.97
2022-11-03T05:35:32.624Z,23.98
2022-11-03T05:36:32.606Z,24.00
2022-11-03T05:37:32.965Z,23.98
2022-11-03T05:38:32.570Z,24.00
2022-11-03T05:39:32.862Z,23.98
2022-11-03T05:40:32.560Z,24.02
2022-11-03T05:41:32.552Z,23.98
2022-11-03T05:42:32.572Z,24.02
2022-11-03T05:43:32.532Z,23.98
2022-11-03T05:44:32.502Z,24.00
2022-11-03T05:45:32.508Z,24.00
2022-11-03T05:46:32.477Z,24.02
2022-11-03T05:47:32.473Z,23.98
2022-11-03T05:48:32.476Z,24.02
2022-11-03T05:49:32.495Z,24.02
2022-11-03T05:50:32.451Z,24.03
2022-11-03T05:51:32.453Z,24.02
2022-11-03T05:52:32.414Z,24.00
2022-11-03T05:53:32.481Z,23.98
2022-11-03T05:54:33.353Z,24.02
2022-11-03T05:55:32.393Z,24.00
2022-11-03T05:56:32.387Z,24.02
2022-11-03T05:57:32.402Z,23.98
2022-11-03T05:58:32.368Z,23.97
2022-11-03T05:59:32.363Z,23.98
2022-11-03T06:00:32.331Z,24.02
2022-11-03T06:01:32.491Z,23.97
2022-11-03T06:02:32.349Z,24.00
2022-11-03T06:03:32.305Z,23.98
2022-11-03T06:04:32.304Z,23.95
2022-11-03T06:05:32.284Z,23.98
2022-11-03T06:06:32.766Z,23.95
2022-11-03T06:07:32.916Z,23.97
2022-11-03T06:08:32.487Z,23.98
2022-11-03T06:09:32.245Z,23.97
2022-11-03T06:10:32.272Z,23.97
2022-11-03T06:11:32.235Z,23.98
2022-11-03T06:12:32.211Z,23.97
2022-11-03T06:13:34.039Z,23.98
2022-11-03T06:14:32.192Z,23.97
2022-11-03T06:15:32.180Z,23.95
2022-11-03T06:16:32.459Z,23.95
2022-11-03T06:17:32.159Z,23.97
2022-11-03T06:18:32.154Z,23.98
2022-11-03T06:19:32.145Z,23.98
2022-11-03T06:20:32.116Z,23.95
2022-11-03T06:21:32.123Z,23.97
2022-11-03T06:22:32.101Z,24.00
2022-11-03T06:23:32.093Z,23.95
2022-11-03T06:24:33.051Z,23.97
2022-11-03T06:25:32.092Z,23.97
2022-11-03T06:26:37.774Z,23.97
2022-11-03T06:27:32.051Z,23.95
2022-11-03T06:28:32.068Z,23.97
2022-11-03T06:29:32.025Z,23.95
2022-11-03T06:30:32.098Z,23.94
2022-11-03T06:31:32.039Z,23.95
2022-11-03T06:32:31.993Z,23.95
2022-11-03T06:33:31.996Z,23.94
2022-11-03T06:34:31.970Z,23.95
2022-11-03T06:35:31.962Z,23.97
2022-11-03T06:36:31.963Z,23.94
2022-11-03T06:37:31.946Z,23.98
2022-11-03T06:38:32.239Z,23.95
2022-11-03T06:39:31.937Z,23.98
2022-11-03T06:40:31.908Z,23.94
2022-11-03T06:41:31.897Z,23.98
2022-11-03T06:42:32.428Z,23.95
2022-11-03T06:43:31.894Z,23.97
2022-11-03T06:44:31.862Z,23.95
2022-11-03T06:45:31.870Z,23.97
2022-11-03T06:46:31.842Z,23.97
2022-11-03T06:47:31.837Z,23.97
2022-11-03T06:48:31.846Z,23.95
2022-11-03T06:49:31.817Z,23.94
2022-11-03T06:50:31.811Z,23.97
2022-11-03T06:51:31.805Z,23.95
2022-11-03T06:52:31.792Z,23.94
2022-11-03T06:53:31.787Z,23.93
2022-11-03T06:54:31.753Z,23.95
2022-11-03T06:55:31.766Z,23.94
2022-11-03T06:56:31.754Z,23.95
2022-11-03T06:57:31.725Z,23.97
2022-11-03T06:58:31.741Z,23.93
2022-11-03T06:59:31.714Z,23.94
2022-11-03T07:00:34.638Z,23.94
2022-11-03T07:01:31.816Z,23.94
2022-11-03T07:02:32.249Z,23.94
2022-11-03T07:03:31.657Z,23.95
2022-11-03T07:04:31.673Z,23.94
2022-11-03T07:05:31.639Z,23.93
2022-11-03T07:06:31.648Z,23.95
2022-11-03T07:07:31.631Z,23.94
2022-11-03T07:08:31.637Z,23.93
2022-11-03T07:09:31.835Z,23.95
2022-11-03T07:10:31.594Z,23.94
2022-11-03T07:11:31.577Z,23.93
2022-11-03T07:12:31.587Z,23.93
2022-11-03T07:13:31.568Z,23.95
2022-11-03T07:14:31.554Z,23.93
2022-11-03T07:15:31.539Z,23.94
2022-11-03T07:16:31.540Z,23.94
2022-11-03T07:17:31.513Z,23.93
2022-11-03T07:18:31.529Z,23.93
2022-11-03T07:19:32.154Z,23.91
2022-11-03T07:20:31.483Z,23.90
2022-11-03T07:21:31.481Z,23.93
2022-11-03T07:22:31.466Z,23.93
2022-11-03T07:23:31.583Z,23.91
2022-11-03T07:24:31.462Z,23.91
2022-11-03T07:25:31.667Z,23.90
2022-11-03T07:26:31.430Z,23.90
2022-11-03T07:27:31.437Z,23.93
2022-11-03T07:28:31.400Z,23.91
2022-11-03T07:29:31.380Z,23.91
2022-11-03T07:30:31.450Z,23.91
2022-11-03T07:31:31.374Z,23.88
2022-11-03T07:32:31.374Z,23.88
2022-11-03T07:33:31.361Z,23.90
2022-11-03T07:34:31.339Z,23.88
2022-11-03T07:35:53.288Z,23.87
2022-11-03T07:36:31.334Z,23.88
2022-11-03T07:37:31.298Z,23.88
2022-11-03T07:38:31.303Z,23.87
2022-11-03T07:39:31.289Z,23.88
2022-11-03T07:40:31.277Z,23.83
2022-11-03T07:41:34.164Z,23.87
2022-11-03T07:42:31.311Z,23.83
2022-11-03T07:43:31.452Z,23.84
2022-11-03T07:44:31.243Z,23.83
2022-11-03T07:45:31.227Z,23.84
2022-11-03T07:46:31.833Z,23.80
2022-11-03T07:47:31.251Z,23.83
2022-11-03T07:48:31.262Z,23.80
2022-11-03T07:49:31.174Z,23.80
2022-11-03T07:50:31.178Z,23.85
2022-11-03T07:51:31.190Z,23.83
2022-11-03T07:52:31.580Z,23.83
2022-11-03T07:53:31.156Z,23.83
2022-11-03T07:54:31.156Z,23.80
2022-11-03T07:55:31.743Z,23.80
2022-11-03T07:56:31.241Z,23.80
2022-11-03T07:57:31.088Z,23.80
2022-11-03T07:58:31.341Z,23.84
2022-11-03T07:59:31.084Z,23.80
2022-11-03T08:00:31.063Z,23.84
2022-11-03T08:01:32.129Z,23.80
2022-11-03T08:02:31.120Z,23.83
2022-11-03T08:03:31.048Z,23.80
2022-11-03T08:04:31.029Z,23.83
2022-11-03T08:05:31.003Z,23.84
2022-11-03T08:06:31.010Z,23.83
2022-11-03T08:07:31.004Z,23.85
2022-11-03T08:08:30.981Z,23.80
2022-11-03T08:09:30.976Z,23.80
2022-11-03T08:10:30.989Z,23.85
2022-11-03T08:11:30.945Z,23.83
2022-11-03T08:12:30.950Z,23.83
2022-11-03T08:13:30.928Z,23.80
2022-11-03T08:14:31.705Z,23.85
2022-11-03T08:15:30.946Z,23.84
2022-11-03T08:16:30.889Z,23.84
2022-11-03T08:17:30.880Z,23.84
2022-11-03T08:18:30.899Z,23.84
2022-11-03T08:19:30.871Z,23.84
2022-11-03T08:20:30.850Z,23.87
2022-11-03T08:21:30.844Z,23.83
2022-11-03T08:22:30.853Z,23.84
2022-11-03T08:23:31.221Z,23.85
2022-11-03T08:24:30.820Z,23.84
2022-11-03T08:25:31.017Z,23.84
2022-11-03T08:26:30.798Z,23.83
2022-11-03T08:27:30.915Z,23.83
2022-11-03T08:28:30.773Z,23.84
2022-11-03T08:29:30.759Z,23.83
2022-11-03T08:30:30.768Z,23.84
2022-11-03T08:31:30.731Z,23.83
2022-11-03T08:32:30.733Z,23.83
2022-11-03T08:33:30.735Z,23.84
2022-11-03T08:34:30.695Z,23.83
2022-11-03T08:35:34.000Z,23.80
2022-11-03T08:36:30.690Z,23.80
2022-11-03T08:37:30.668Z,23.83
2022-11-03T08:38:30.667Z,23.83
2022-11-03T08:39:30.655Z,23.85
2022-11-03T08:40:30.656Z,23.84
2022-11-03T08:41:30.649Z,23.80
2022-11-03T08:42:30.823Z,23.80
2022-11-03T08:43:30.733Z,23.85
2022-11-03T08:44:30.605Z,23.84
2022-11-03T08:45:30.588Z,23.83
2022-11-03T08:46:30.581Z,23.85
2022-11-03T08:47:30.607Z,23.85
2022-11-03T08:48:30.670Z,23.88
2022-11-03T08:49:30.533Z,23.90
2022-11-03T08:50:30.657Z,23.87
2022-11-03T08:51:30.541Z,23.90
2022-11-03T08:52:30.562Z,23.93
2022-11-03T08:53:30.505Z,23.91
2022-11-03T08:54:30.500Z,23.95
2022-11-03T08:55:30.467Z,23.94
2022-11-03T08:56:30.496Z,23.95
2022-11-03T08:57:30.640Z,23.97
2022-11-03T08:58:30.472Z,23.97
2022-11-03T08:59:30.439Z,23.98
2022-11-03T09:00:30.429Z,23.98
2022-11-03T09:01:30.710Z,24.02
2022-11-03T09:02:30.532Z,24.03
2022-11-03T09:03:30.404Z,24.00
2022-11-03T09:04:30.389Z,24.05
2022-11-03T09:05:30.362Z,24.02
2022-11-03T09:06:30.423Z,24.06
2022-11-03T09:10:33.541Z,24.06
2022-11-03T09:11:30.479Z,24.08
2022-11-03T09:12:30.355Z,24.12
2022-11-03T09:13:30.288Z,24.13
2022-11-03T09:14:30.292Z,24.16
2022-11-03T09:15:30.286Z,24.15
2022-11-03T09:16:30.252Z,24.15
2022-11-03T09:17:30.252Z,24.13
2022-11-03T09:18:30.237Z,24.16
2022-11-03T09:19:30.216Z,24.20
2022-11-03T09:20:30.330Z,24.16
2022-11-03T09:21:30.689Z,24.18
2022-11-03T09:22:30.446Z,24.20
2022-11-03T09:23:30.285Z,24.21
2022-11-03T09:24:30.263Z,24.21
2022-11-03T09:25:30.354Z,24.16
2022-11-03T09:26:30.544Z,24.16
2022-11-03T09:27:30.661Z,24.15
2022-11-03T09:28:32.234Z,24.15
2022-11-03T09:29:51.594Z,24.13
2022-11-03T09:30:30.515Z,24.15
2022-11-03T09:31:32.802Z,24.13
2022-11-03T09:32:30.100Z,24.10
2022-11-03T09:33:31.595Z,24.12
2022-11-03T09:34:30.072Z,24.12
2022-11-03T09:35:30.057Z,24.10
2022-11-03T09:36:30.042Z,24.09
2022-11-03T09:37:30.043Z,24.10
2022-11-03T09:38:30.035Z,24.10
2022-11-03T09:39:30.028Z,24.10
2022-11-03T09:40:30.010Z,24.12
2022-11-03T09:41:53.613Z,24.10
2022-11-03T09:42:29.983Z,24.10
2022-11-03T09:43:29.973Z,24.10
2022-11-03T09:44:29.990Z,24.12
2022-11-03T09:45:29.982Z,24.10
2022-11-03T09:46:29.953Z,24.09
2022-11-03T09:47:29.929Z,24.12
2022-11-03T09:48:29.910Z,24.10
2022-11-03T09:49:30.174Z,24.09
2022-11-03T09:50:29.896Z,24.08
2022-11-03T09:51:29.880Z,24.10
2022-11-03T09:52:29.884Z,24.10
2022-11-03T09:53:29.870Z,24.12
2022-11-03T09:54:29.896Z,24.13
2022-11-03T09:55:29.860Z,24.09
2022-11-03T09:56:29.844Z,24.10
2022-11-03T09:57:29.829Z,24.12
2022-11-03T09:58:29.820Z,24.10
2022-11-03T09:59:29.811Z,24.12
2022-11-03T10:00:29.792Z,24.13
2022-11-03T10:01:29.898Z,24.13
2022-11-03T10:02:29.896Z,24.16
2022-11-03T10:03:29.748Z,24.15
2022-11-03T10:04:29.781Z,24.20
2022-11-03T10:05:29.726Z,24.16
2022-11-03T10:06:29.740Z,24.16
2022-11-03T10:07:30.600Z,24.16
2022-11-03T10:08:29.701Z,24.16
2022-11-03T10:09:29.879Z,24.15
2022-11-03T10:10:29.688Z,24.15
2022-11-03T10:11:29.670Z,24.16
2022-11-03T10:12:29.677Z,24.18
2022-11-03T10:13:29.706Z,24.20
2022-11-03T10:14:29.660Z,24.13
2022-11-03T10:15:29.640Z,24.16
2022-11-03T10:16:30.063Z,24.15
2022-11-03T10:17:29.620Z,24.13
2022-11-03T10:18:29.603Z,24.16
2022-11-03T10:19:29.895Z,24.13
2022-11-03T10:20:29.590Z,24.18
2022-11-03T10:21:29.564Z,24.15
2022-11-03T10:22:29.572Z,24.13
2022-11-03T10:23:29.552Z,24.15
2022-11-03T10:24:29.544Z,24.16
2022-11-03T10:25:29.526Z,24.13
2022-11-03T10:26:29.530Z,24.13
2022-11-03T10:27:29.512Z,24.15
2022-11-03T10:28:29.491Z,24.13
2022-11-03T10:29:30.931Z,24.15
2022-11-03T10:30:32.451Z,24.16
2022-11-03T10:31:29.473Z,24.12
2022-11-03T10:32:29.497Z,24.12
2022-11-03T10:33:29.435Z,24.12
2022-11-03T10:34:29.958Z,24.12
2022-11-03T10:35:29.425Z,24.13
2022-11-03T10:36:29.417Z,24.12
2022-11-03T10:37:29.406Z,24.10
2022-11-03T10:38:29.426Z,24.12
2022-11-03T10:39:29.383Z,24.13
2022-11-03T10:40:47.511Z,24.15
2022-11-03T10:41:29.392Z,24.16
2022-11-03T10:42:35.009Z,24.18
2022-11-03T10:43:29.352Z,24.20
2022-11-03T10:44:29.372Z,24.18
2022-11-03T10:45:29.338Z,24.22
2022-11-03T10:46:49.105Z,24.21
2022-11-03T10:47:29.349Z,24.21
2022-11-03T10:48:29.315Z,24.24
2022-11-03T10:49:29.278Z,24.20
2022-11-03T10:50:29.305Z,24.21
2022-11-03T10:51:29.313Z,24.25
2022-11-03T10:52:29.289Z,24.25
2022-11-03T10:53:29.242Z,24.25
2022-11-03T10:54:29.231Z,24.25
2022-11-03T10:55:29.299Z,24.25
2022-11-03T10:56:29.212Z,24.27
2022-11-03T10:57:29.641Z,24.28
2022-11-03T10:58:29.191Z,24.25
2022-11-03T10:59:29.339Z,24.27
2022-11-03T11:00:29.446Z,24.28
2022-11-03T11:01:29.639Z,24.27
2022-11-03T11:02:29.298Z,24.25
2022-11-03T11:03:31.025Z,24.27
2022-11-03T11:04:29.263Z,24.27
2022-11-03T11:05:29.223Z,24.27
2022-11-03T11:06:29.749Z,24.28
2022-11-03T11:07:31.423Z,24.30
2022-11-03T11:08:29.184Z,24.32
2022-11-03T11:09:29.081Z,24.31
2022-11-03T11:10:29.054Z,24.30
2022-11-03T11:11:29.041Z,24.30
2022-11-03T11:12:30.060Z,24.28
2022-11-03T11:13:29.071Z,24.27
2022-11-03T11:14:29.056Z,24.25
2022-11-03T11:15:29.000Z,24.27
2022-11-03T11:16:28.998Z,24.25
2022-11-03T11:17:29.040Z,24.28
2022-11-03T11:18:29.087Z,24.28
2022-11-03T11:19:28.969Z,24.30
2022-11-03T11:20:28.940Z,24.31
2022-11-03T11:21:31.945Z,24.25
2022-11-03T11:22:28.925Z,24.27
2022-11-03T11:23:29.004Z,24.27
2022-11-03T11:24:28.954Z,24.25
2022-11-03T11:25:28.903Z,24.28
2022-11-03T11:26:28.892Z,24.27
2022-11-03T11:27:28.886Z,24.28
2022-11-03T11:28:28.854Z,24.27
2022-11-03T11:29:29.101Z,24.27
2022-11-03T11:30:28.853Z,24.32
2022-11-03T11:31:28.841Z,24.27
2022-11-03T11:32:29.120Z,24.28
2022-11-03T11:33:28.821Z,24.25
2022-11-03T11:34:28.804Z,24.27
2022-11-03T11:35:28.913Z,24.25
2022-11-03T11:36:28.806Z,24.24
2022-11-03T11:37:28.764Z,24.25
2022-11-03T11:38:28.766Z,24.28
2022-11-03T11:39:28.779Z,24.30
2022-11-03T11:40:28.745Z,24.31
2022-11-03T11:41:28.747Z,24.30
2022-11-03T11:42:30.448Z,24.30
2022-11-03T11:43:28.701Z,24.30
2022-11-03T11:44:28.768Z,24.27
2022-11-03T11:45:28.694Z,24.27
2022-11-03T11:46:28.664Z,24.27
2022-11-03T11:47:28.684Z,24.27
2022-11-03T11:48:28.656Z,24.27
2022-11-03T11:49:28.638Z,24.25
2022-11-03T11:50:28.681Z,24.24
2022-11-03T11:51:28.629Z,24.24
2022-11-03T11:52:28.629Z,24.24
2022-11-03T11:53:31.831Z,24.21
2022-11-03T11:54:28.642Z,24.22
2022-11-03T11:55:28.594Z,24.24
2022-11-03T11:56:28.602Z,24.24
2022-11-03T11:57:28.556Z,24.25
2022-11-03T11:58:28.555Z,24.24
2022-11-03T11:59:28.552Z,24.27
2022-11-03T12:00:28.537Z,24.31
2022-11-03T12:01:28.850Z,24.32
2022-11-03T12:02:28.518Z,24.31
2022-11-03T12:03:28.814Z,24.34
2022-11-03T12:04:28.483Z,24.32
2022-11-03T12:05:28.484Z,24.31
2022-11-03T12:06:28.485Z,24.30
2022-11-03T12:07:28.492Z,24.30
2022-11-03T12:08:28.448Z,24.27
2022-11-03T12:09:28.526Z,24.30
2022-11-03T12:10:28.430Z,24.25
2022-11-03T12:11:28.479Z,24.28
2022-11-03T12:12:28.535Z,24.30
2022-11-03T12:13:28.694Z,24.30
2022-11-03T12:14:28.511Z,24.31
2022-11-03T12:15:28.380Z,24.30
2022-11-03T12:16:28.408Z,24.30
2022-11-03T12:17:28.355Z,24.28
2022-11-03T12:18:29.092Z,24.28
2022-11-03T12:19:28.526Z,24.28
2022-11-03T12:20:28.340Z,24.28
2022-11-03T12:21:28.637Z,24.27
2022-11-03T12:22:28.340Z,24.28
2022-11-03T12:23:29.068Z,24.27
2022-11-03T12:24:28.411Z,24.28
2022-11-03T12:25:28.415Z,24.27
2022-11-03T12:26:28.394Z,24.27
2022-11-03T12:27:28.729Z,24.27
2022-11-03T12:28:50.878Z,24.24
2022-11-03T12:29:28.331Z,24.27
2022-11-03T12:30:28.483Z,24.30
2022-11-03T12:31:31.656Z,24.25
2022-11-03T12:32:35.745Z,24.27
2022-11-03T12:33:28.196Z,24.27
2022-11-03T12:34:28.174Z,24.27
2022-11-03T12:35:28.254Z,24.28
2022-11-03T12:36:28.167Z,24.30
2022-11-03T12:37:28.321Z,24.30
2022-11-03T12:38:28.136Z,24.34
2022-11-03T12:39:28.135Z,24.28
2022-11-03T12:40:28.329Z,24.27
2022-11-03T12:41:28.088Z,24.30
2022-11-03T12:42:28.074Z,24.31
2022-11-03T12:43:28.128Z,24.32
2022-11-03T12:44:28.440Z,24.30
2022-11-03T12:45:28.524Z,24.32
2022-11-03T12:46:28.643Z,24.32
2022-11-03T12:47:28.167Z,24.32
2022-11-03T12:48:28.172Z,24.31
2022-11-03T12:49:28.098Z,24.32
2022-11-03T12:50:28.007Z,24.30
2022-11-03T12:51:27.997Z,24.31
2022-11-03T12:52:27.967Z,24.34
2022-11-03T12:53:27.993Z,24.34
2022-11-03T12:54:28.322Z,24.35
2022-11-03T12:56:27.952Z,24.31